Stations météo

réclame
Mon MeteoGroup
La Hoya, Espagne (8205): Température de l'air & dewpoint: 18.05.2019 05:00:00 - 24.05.2019 05:00:00 (CEST)La Hoya, Espagne (8205): Vitesse du vent & gusts: 18.05.2019 05:00:00 - 24.05.2019 05:00:00 (CEST)La Hoya, Espagne (8205): Direction du vent: 18.05.2019 05:00:00 - 24.05.2019 05:00:00 (CEST)La Hoya, Espagne (8205): visibility: 18.05.2019 05:00:00 - 24.05.2019 05:00:00 (CEST)La Hoya, Espagne (8205): Quantités de précipitations: 18.05.2019 05:00:00 - 24.05.2019 05:00:00 (CEST)
Date & Time tt [°C] td [°C] ff [km/h] ff [knt] fx [km/h] fx [knt] dd vv [km] rr [mm]
24.05.2019 05:00:00 4,5 3,2 14 8 22 12 E 20 0,0
24.05.2019 04:00:00 4,5 3,0 14 8 19 10 E 20 0,0
24.05.2019 03:00:00 5,2 3,8 14 7 20 11 E 20 0,0
24.05.2019 02:00:00 5,4 3,9 14 8 20 11 E 20 -
24.05.2019 01:00:00 6,5 5,3 15 8 19 10 E 20 0,0
24.05.2019 00:00:00 7,6 6,4 7 4 15 8 NNW 20 0,0
23.05.2019 23:00:00 8,4 6,2 8 4 26 14 NNW 20 0,0
23.05.2019 22:00:00 9,3 4,1 4 2 18 10 WNW 20 0,0
23.05.2019 21:00:00 11,7 2,7 13 7 25 13 W 20 0,0
23.05.2019 20:00:00 12,5 5,0 17 9 31 17 W 20 -
23.05.2019 19:00:00 14,8 4,5 18 10 35 19 W 20 0,0
23.05.2019 18:00:00 15,3 0,6 18 10 40 22 W 20 0,0
23.05.2019 17:00:00 15,1 -1,4 20 11 41 22 WSW 20 0,0
23.05.2019 16:00:00 15,4 2,3 24 13 40 22 W 20 0,0
23.05.2019 15:00:00 14,6 5,5 23 13 37 20 WNW 20 0,0
23.05.2019 14:00:00 14,2 6,2 24 13 37 20 W 20 -
23.05.2019 13:00:00 15,1 2,9 19 10 43 23 W 20 0,2
23.05.2019 12:00:00 13,6 1,9 25 13 54 29 W 20 0,0
23.05.2019 11:00:00 12,6 -0,7 38 20 63 34 SW 20 0,0
23.05.2019 10:00:00 10,8 -5,4 23 13 49 26 SW 20 0,0
23.05.2019 09:00:00 10,9 0,0 24 13 44 24 SW 20 0,0
23.05.2019 08:00:00 9,7 3,6 20 11 35 19 WSW 20 -
23.05.2019 07:00:00 9,3 2,9 20 11 31 17 SW 20 0,0
23.05.2019 06:00:00 9,8 2,5 23 13 32 18 SW 20 0,0
23.05.2019 05:00:00 8,0 1,9 16 9 22 12 SSW 20 0,0
23.05.2019 04:00:00 7,8 1,7 10 6 17 9 S 20 0,0
23.05.2019 03:00:00 7,6 1,7 4 2 13 7 SE 20 0,0
23.05.2019 02:00:00 7,7 2,1 10 5 18 10 WSW 20 -
23.05.2019 01:00:00 9,4 1,7 14 8 18 10 SSW 20 0,0
23.05.2019 00:00:00 10,0 1,7 15 8 21 12 SSW 20 0,0
22.05.2019 23:00:00 10,2 1,3 16 9 20 11 SSW 20 0,0
22.05.2019 22:00:00 10,1 2,3 14 8 26 14 WSW 20 0,0
22.05.2019 21:00:00 12,5 1,7 17 9 31 17 W 20 0,0
22.05.2019 20:00:00 13,8 1,1 21 11 37 20 W 20 -
22.05.2019 19:00:00 14,5 2,7 17 9 38 21 W 20 0,0
22.05.2019 18:00:00 14,5 3,0 20 11 38 20 W 20 0,0
22.05.2019 17:00:00 14,3 2,9 21 11 37 20 W 20 0,0
22.05.2019 16:00:00 12,8 3,9 18 10 32 17 W 20 0,0
22.05.2019 15:00:00 12,8 3,8 13 7 31 17 WSW 20 0,0
22.05.2019 14:00:00 13,3 3,6 13 7 26 14 WNW 20 -
22.05.2019 13:00:00 11,8 2,3 11 6 24 13 W 20 0,0
22.05.2019 12:00:00 11,3 0,4 8 5 17 9 WNW 20 0,0
22.05.2019 11:00:00 12,3 0,4 8 4 16 8 WNW 20 0,0
22.05.2019 10:00:00 11,9 -0,7 8 4 13 7 NW 20 0,0
22.05.2019 09:00:00 11,4 -1,0 5 3 9 5 W 20 0,0
22.05.2019 08:00:00 9,5 0,4 5 3 12 7 E 20 -
22.05.2019 07:00:00 5,8 -0,7 11 6 15 8 SE 20 0,0
22.05.2019 06:00:00 6,1 -1,0 10 5 13 7 SE 20 0,0
22.05.2019 05:00:00 6,1 -1,2 9 5 16 9 SSE 20 0,0
22.05.2019 04:00:00 6,2 -1,7 11 6 13 7 SE 20 0,0
22.05.2019 03:00:00 6,0 -1,4 10 5 14 7 ESE 20 0,0
22.05.2019 02:00:00 6,6 -1,2 11 6 16 9 ESE 20 -
22.05.2019 01:00:00 6,6 -0,5 9 5 12 7 E 20 0,0
22.05.2019 00:00:00 6,5 1,3 5 3 9 5 S 20 0,0
21.05.2019 23:00:00 6,6 1,7 6 4 9 5 SSW 20 0,0
21.05.2019 22:00:00 7,7 1,1 4 2 18 10 SW 20 0,0
21.05.2019 21:00:00 11,1 1,1 11 6 23 12 W 20 0,0
21.05.2019 20:00:00 12,3 0,4 13 7 27 14 WNW 20 -
21.05.2019 19:00:00 12,7 -0,5 13 7 29 16 W 20 0,0
21.05.2019 18:00:00 12,9 2,1 10 5 29 15 NW 20 0,0
21.05.2019 17:00:00 12,6 1,9 12 7 24 13 W 20 0,0
21.05.2019 16:00:00 10,9 2,3 10 5 26 14 WNW 20 0,0
21.05.2019 15:00:00 11,0 2,1 6 3 23 12 NNE 20 0,0
21.05.2019 14:00:00 9,5 2,9 11 6 18 10 W 20 -
21.05.2019 13:00:00 8,8 2,1 4 2 18 10 N 20 0,0
21.05.2019 12:00:00 8,3 2,5 8 4 15 8 WNW 20 0,0
21.05.2019 11:00:00 8,0 0,9 7 4 18 10 WNW 20 0,0
21.05.2019 10:00:00 8,6 3,0 6 4 13 7 N 20 0,0
21.05.2019 09:00:00 7,4 1,1 6 3 9 5 NE 20 0,0
21.05.2019 08:00:00 4,2 0,2 3 2 9 5 ENE 20 -
21.05.2019 07:00:00 1,6 -1,2 4 2 11 6 SSE 20 0,0
21.05.2019 06:00:00 1,8 -1,2 4 2 16 9 SSE 20 0,0
21.05.2019 05:00:00 2,6 -1,0 12 6 21 11 E 20 0,0
21.05.2019 04:00:00 2,6 -1,0 14 8 16 9 ESE 20 0,0
21.05.2019 03:00:00 2,4 -1,0 14 7 16 9 E 20 0,0
21.05.2019 02:00:00 2,9 -1,0 9 5 15 8 E 20 -
21.05.2019 01:00:00 3,1 -0,7 12 7 16 9 E 20 0,0
21.05.2019 00:00:00 3,2 -0,5 4 2 11 6 S 20 0,0
20.05.2019 23:00:00 4,8 0,2 1 1 14 7 ESE 20 0,0
20.05.2019 22:00:00 5,4 -0,7 8 4 16 9 W 20 0,0
20.05.2019 21:00:00 6,7 0,9 13 7 24 13 W 20 0,0
20.05.2019 20:00:00 7,0 0,2 18 10 29 16 WSW 20 -
20.05.2019 19:00:00 8,0 0,0 18 10 29 15 W 20 0,0
20.05.2019 18:00:00 8,2 -2,0 15 8 35 19 W 20 0,0
20.05.2019 17:00:00 8,1 -1,7 19 10 34 18 W 20 0,0
20.05.2019 16:00:00 9,3 -0,7 20 11 34 19 W 20 0,0
20.05.2019 15:00:00 8,3 -0,3 19 11 34 18 W 20 0,0
20.05.2019 14:00:00 7,4 -0,5 18 10 27 14 W 20 -
20.05.2019 13:00:00 9,0 -5,4 8 5 27 15 W 20 0,0
20.05.2019 12:00:00 6,8 -0,3 16 9 25 13 W 20 0,0
20.05.2019 11:00:00 6,0 -1,7 13 7 27 15 W 20 0,0
20.05.2019 10:00:00 5,7 -2,7 18 10 28 15 W 20 0,0
20.05.2019 09:00:00 4,9 -4,5 19 10 28 15 WSW 20 0,0
20.05.2019 08:00:00 3,3 -6,0 13 7 24 13 WSW 20 -
20.05.2019 07:00:00 1,8 -7,5 12 6 19 10 SSW 20 0,0
20.05.2019 06:00:00 1,0 -8,6 14 8 21 11 SW 20 0,0
20.05.2019 05:00:00 2,0 -7,5 16 8 22 12 SSW 20 0,0
20.05.2019 04:00:00 0,1 -7,5 5 3 13 7 SW 20 0,0
20.05.2019 03:00:00 1,7 -6,7 5 3 12 7 NW 20 0,0
20.05.2019 02:00:00 0,8 -7,1 12 6 16 9 ESE 20 -
20.05.2019 01:00:00 1,2 -6,4 7 4 10 5 SE 20 0,0
20.05.2019 00:00:00 1,5 -6,7 5 3 10 5 ESE 20 0,0
19.05.2019 23:00:00 1,7 -6,0 6 3 14 8 SW 20 0,0
19.05.2019 22:00:00 2,6 -6,0 9 5 18 10 SW 20 0,0
19.05.2019 21:00:00 5,1 -6,7 14 8 29 15 W 20 0,0
19.05.2019 20:00:00 7,1 -7,8 20 11 31 17 W 20 -
19.05.2019 19:00:00 8,2 -7,8 18 10 34 18 WNW 20 0,0
19.05.2019 18:00:00 8,4 -6,7 16 9 35 19 W 20 0,0
19.05.2019 17:00:00 7,6 -4,8 18 10 32 17 WNW 20 0,0
19.05.2019 16:00:00 7,2 -6,4 16 9 33 18 WNW 20 0,0
19.05.2019 15:00:00 6,6 -8,2 17 9 27 15 WNW 20 0,0
19.05.2019 14:00:00 5,8 -3,9 14 8 27 15 W 20 -
19.05.2019 13:00:00 5,3 -2,2 16 9 24 13 WNW 20 0,0
19.05.2019 12:00:00 3,8 -1,2 13 7 19 11 WNW 20 0,0
19.05.2019 11:00:00 4,9 0,9 8 5 19 11 NNE 20 0,0
19.05.2019 10:00:00 3,1 -2,7 9 5 16 9 NNE 20 0,0
19.05.2019 09:00:00 2,0 -1,2 10 6 14 8 ENE 20 0,0
19.05.2019 08:00:00 0,8 -2,5 8 4 18 10 E 20 -
19.05.2019 07:00:00 -1,6 -1,7 12 6 18 10 ESE 20 0,0
19.05.2019 06:00:00 -1,5 -1,4 12 6 20 11 E 17 0,0
19.05.2019 05:00:00 -0,9 -1,0 11 6 15 8 E 16 0,0
19.05.2019 04:00:00 -0,7 -0,7 8 5 13 7 E 7 0,0
19.05.2019 03:00:00 -0,5 -1,0 8 4 14 8 NE 20 0,0
19.05.2019 02:00:00 -0,3 -1,0 9 5 18 10 N 20 -
19.05.2019 01:00:00 -0,3 -2,2 5 3 13 7 NW 20 0,0
19.05.2019 00:00:00 0,5 -2,7 5 3 14 7 WNW 20 0,0
18.05.2019 23:00:00 1,1 -2,5 8 5 19 10 W 20 0,0
18.05.2019 22:00:00 1,4 -2,5 10 5 26 14 WNW 20 0,0
18.05.2019 21:00:00 2,5 -2,7 13 7 29 16 WNW 20 0,0
18.05.2019 20:00:00 3,2 -2,7 16 9 26 14 WNW 20 -
18.05.2019 19:00:00 4,4 -2,7 16 9 29 16 W 20 0,0
18.05.2019 18:00:00 3,8 -2,7 15 8 28 15 W 20 0,0
18.05.2019 17:00:00 3,8 -2,7 14 8 27 15 W 20 0,0
18.05.2019 16:00:00 3,6 -3,3 12 7 28 15 WNW 20 0,0
18.05.2019 15:00:00 2,6 -2,5 11 6 24 13 WNW 20 0,0
18.05.2019 14:00:00 2,9 -2,0 14 7 27 15 WNW 20 -
18.05.2019 13:00:00 1,3 -2,2 12 7 31 17 NW 20 0,0
18.05.2019 12:00:00 -0,1 -2,7 10 6 20 11 NNE 20 0,0
18.05.2019 11:00:00 -2,4 -2,7 14 8 28 15 ENE 20 0,0
18.05.2019 10:00:00 -2,9 -3,0 15 8 27 14 NE 0,2 0,0
18.05.2019 09:00:00 -3,4 -3,3 12 6 23 12 NE 0,3 0,0
18.05.2019 08:00:00 -3,6 -4,2 13 7 24 13 N 20 -
18.05.2019 07:00:00 -4,0 -3,9 15 8 29 16 W 0,3 0,0
18.05.2019 06:00:00 -3,0 - 14 8 29 16 WNW 1,0 0,0
18.05.2019 05:00:00 -2,7 - 18 10 27 15 NW 0,2 0,0

tt = Température de l'air
td = dewpoint
ff = Vitesse du vent
fx = gusts
dd = Direction du vent
vv = visibility
rr = Quantités de précipitations

stations d'obs. à proximité